Página principal
METAR-TAF:

METAR-TAF

Aeroportos :

Dundee, Escócia

latitude: 56-27N, longitude: 003-01W, altura: 4 m

Observação actual do tempo

O boletim foi feito há 23 minutos, às 21:20 UTC
Vento 11 kt de sudeste
Temperatura 5°C
Humidade 75%
Pressão 1019 hPa
Visibilidade 10 km ou mais
Poucas nuvensa uma altura de 2500 ft

METAR: EGPN 122120Z 13011KT 9999 FEW025 05/01 Q1019

Hora: 21:43 (21:43 UTC)

Previsão

O boletim foi feito há 4 horas e 45 minutos, às 16:58 UTC
Previsão válida de 12 às 18 UTC a 12 às 21 UTC
Vento 9 kt de sudeste
Visibilidade 10 km ou mais
Poucas nuvensa uma altura de 2000 ft

TAF: EGPN 121658Z 1218/1221 13009KT 9999 FEW020

Observações e previsões do tempo de mais de 4000 aeroportos (mensagens METAR e TAF).

As estações disponíveis são os pontos amarelos e vermelhos sobre o mapa.

Mova o rato sobre o mapa para ver o nome da estação.

Depois clique no ponto para visualizar as observações e previsões meteorológicas.

Para alterar o mapa : clique nos botões verdes com uma cruz preta para aumentar o zoom; no botão verde com uma pitada de zoom; ou nas setas verdes para mapas adjacentes.


METAR-TAF: